createdAt,value
2019-04-10T00:03:43.752Z,20.00
2019-04-10T00:08:46.301Z,23.50
2019-04-10T00:13:49.055Z,20.20
2019-04-10T00:18:51.239Z,22.07
2019-04-10T00:23:53.206Z,23.07
2019-04-10T00:28:56.044Z,20.87
2019-04-10T00:33:58.983Z,23.73
2019-04-10T00:39:02.271Z,22.70
2019-04-10T00:44:04.379Z,22.90
2019-04-10T00:49:07.184Z,22.53
2019-04-10T00:54:09.850Z,20.83
2019-04-10T00:59:12.175Z,19.40
2019-04-10T01:04:14.392Z,24.33
2019-04-10T01:09:17.316Z,18.97
2019-04-10T01:14:19.595Z,21.20
2019-04-10T01:19:21.738Z,18.30
2019-04-10T01:24:23.796Z,18.70
2019-04-10T01:29:25.764Z,22.27
2019-04-10T01:34:27.725Z,20.00
2019-04-10T01:39:31.111Z,20.20
2019-04-10T01:44:33.224Z,22.80
2019-04-10T01:49:35.337Z,27.70
2019-04-10T01:54:37.503Z,26.83
2019-04-10T01:59:40.673Z,22.30
2019-04-10T02:04:44.852Z,22.47
2019-04-10T02:09:47.722Z,21.40
2019-04-10T02:14:49.890Z,22.30
2019-04-10T02:19:52.077Z,23.40
2019-04-10T02:24:54.160Z,24.30
2019-04-10T02:29:56.154Z,26.53
2019-04-10T02:34:58.314Z,25.20
2019-04-10T02:40:02.924Z,21.30
2019-04-10T02:45:06.002Z,27.37
2019-04-10T02:50:10.434Z,23.47
2019-04-10T02:55:14.328Z,23.93
2019-04-10T03:00:18.057Z,22.57
2019-04-10T03:05:22.984Z,24.97
2019-04-10T03:10:33.497Z,27.63
2019-04-10T03:15:29.669Z,27.50
2019-04-10T03:20:32.260Z,26.70
2019-04-10T03:25:35.160Z,28.33
2019-04-10T03:30:39.411Z,25.33
2019-04-10T03:35:45.199Z,30.37
2019-04-10T03:40:48.050Z,29.60
2019-04-10T03:45:50.131Z,26.63
2019-04-10T03:50:52.254Z,31.33
2019-04-10T03:55:57.094Z,31.37
2019-04-10T04:00:59.254Z,28.20
2019-04-10T04:06:01.606Z,30.23
2019-04-10T04:11:04.847Z,28.23
2019-04-10T04:16:07.107Z,27.73
2019-04-10T04:21:09.732Z,28.10
2019-04-10T04:26:12.689Z,27.87
2019-04-10T04:31:15.965Z,40.73
2019-04-10T04:36:18.321Z,32.17
2019-04-10T04:41:20.396Z,28.60
2019-04-10T04:46:22.449Z,29.93
2019-04-10T04:51:25.832Z,27.40
2019-04-10T04:56:28.327Z,27.20
2019-04-10T05:01:30.410Z,24.77
2019-04-10T05:06:32.961Z,28.47
2019-04-10T05:11:36.375Z,27.87
2019-04-10T05:16:39.525Z,27.53
2019-04-10T05:21:41.709Z,27.00
2019-04-10T05:26:44.807Z,28.77
2019-04-10T05:31:47.163Z,24.67
2019-04-10T05:36:49.261Z,26.93
2019-04-10T05:41:51.299Z,27.53
2019-04-10T05:46:53.454Z,25.37
2019-04-10T05:51:55.659Z,26.43
2019-04-10T05:56:58.980Z,24.40
2019-04-10T06:02:01.184Z,22.87
2019-04-10T06:07:03.235Z,23.73
2019-04-10T06:12:05.862Z,22.87
2019-04-10T06:17:10.073Z,17.87
2019-04-10T06:22:12.773Z,22.77
2019-04-10T06:27:15.056Z,22.80
2019-04-10T06:32:17.119Z,21.40
2019-04-10T06:37:19.203Z,22.00
2019-04-10T06:42:22.475Z,25.03
2019-04-10T06:47:24.924Z,21.80
2019-04-10T06:52:27.079Z,20.07
2019-04-10T06:57:30.286Z,18.17
2019-04-10T07:02:34.597Z,17.13
2019-04-10T07:07:49.878Z,18.33
2019-04-10T07:12:41.628Z,17.17
2019-04-10T07:17:44.763Z,17.13
2019-04-10T07:22:49.352Z,16.23
2019-04-10T07:27:52.357Z,15.43
2019-04-10T07:32:55.135Z,18.33
2019-04-10T07:37:58.462Z,18.20
2019-04-10T07:43:02.137Z,16.17
2019-04-10T07:48:04.519Z,16.00
2019-04-10T07:53:06.957Z,15.73
2019-04-10T07:58:09.031Z,18.00
2019-04-10T08:03:11.103Z,13.30
2019-04-10T08:08:13.223Z,14.30
2019-04-10T08:13:16.145Z,22.17
2019-04-10T08:18:18.969Z,13.37
2019-04-10T08:23:21.811Z,12.03
2019-04-10T08:28:24.211Z,11.33
2019-04-10T08:33:26.114Z,9.50
2019-04-10T08:38:28.284Z,10.43
2019-04-10T08:43:31.266Z,8.07
2019-04-10T08:48:34.666Z,10.20
2019-04-10T08:53:36.865Z,10.33
2019-04-10T08:58:39.157Z,9.50
2019-04-10T09:03:41.352Z,11.53
2019-04-10T09:08:43.686Z,8.33
2019-04-10T09:13:46.447Z,8.43
2019-04-10T09:18:49.496Z,11.90
2019-04-10T09:23:54.402Z,7.97
2019-04-10T09:28:56.983Z,6.50
2019-04-10T09:33:59.267Z,8.13
2019-04-10T09:39:01.328Z,10.20
2019-04-10T09:44:04.531Z,7.77
2019-04-10T09:49:06.983Z,6.27
2019-04-10T09:54:09.890Z,7.10
2019-04-10T09:59:12.117Z,6.60
2019-04-10T10:04:15.353Z,7.20
2019-04-10T10:09:17.697Z,6.73
2019-04-10T10:14:20.887Z,7.40
2019-04-10T10:19:23.743Z,5.63
2019-04-10T10:24:28.781Z,9.20
2019-04-10T10:29:30.983Z,7.47
2019-04-10T10:34:33.034Z,7.10
2019-04-10T10:39:35.081Z,9.57
2019-04-10T10:44:38.346Z,12.23
2019-04-10T10:49:40.502Z,14.77
2019-04-10T10:54:43.246Z,8.03
2019-04-10T10:59:46.055Z,7.37
2019-04-10T11:04:48.498Z,9.23
2019-04-10T11:09:53.134Z,8.13
2019-04-10T11:14:56.258Z,11.40
2019-04-10T11:19:59.496Z,9.23
2019-04-10T11:25:01.762Z,7.27
2019-04-10T11:30:05.441Z,7.30
2019-04-10T11:35:08.038Z,9.27
2019-04-10T11:40:12.203Z,9.10
2019-04-10T11:45:17.091Z,6.80
2019-04-10T11:50:19.472Z,6.90
2019-04-10T11:55:25.796Z,5.67
2019-04-10T12:00:45.361Z,9.77
2019-04-10T12:05:42.099Z,6.33
2019-04-10T12:15:48.505Z,11.00
2019-04-10T12:20:51.531Z,7.97
2019-04-10T12:25:53.790Z,6.67
2019-04-10T12:30:55.872Z,5.33
2019-04-10T12:35:58.248Z,6.83
2019-04-10T12:41:01.349Z,9.10
2019-04-10T12:46:04.562Z,5.50
2019-04-10T12:51:07.700Z,9.33
2019-04-10T12:56:10.250Z,6.57
2019-04-10T13:01:14.251Z,6.73
2019-04-10T13:06:17.867Z,7.60
2019-04-10T13:11:20.495Z,8.23
2019-04-10T13:16:23.842Z,9.13
2019-04-10T13:21:26.398Z,7.80
2019-04-10T13:26:28.758Z,12.60
2019-04-10T13:31:30.793Z,12.90
2019-04-10T13:36:33.002Z,7.30
2019-04-10T13:41:35.079Z,8.70
2019-04-10T13:46:37.288Z,7.97
2019-04-10T13:51:39.378Z,9.37
2019-04-10T13:56:41.467Z,10.07
2019-04-10T14:01:43.947Z,6.13
2019-04-10T14:06:48.813Z,10.27
2019-04-10T14:11:51.260Z,8.60
2019-04-10T14:16:53.613Z,5.73
2019-04-10T14:21:55.734Z,6.43
2019-04-10T14:27:21.436Z,8.23
2019-04-10T14:32:35.965Z,9.67
2019-04-10T14:37:38.128Z,10.37
2019-04-10T14:42:40.349Z,6.30
2019-04-10T14:47:43.443Z,6.00
2019-04-10T14:52:45.741Z,6.37
2019-04-10T14:57:47.801Z,6.20
2019-04-10T15:02:50.713Z,5.00
2019-04-10T15:07:53.280Z,5.33
2019-04-10T15:13:06.747Z,7.37
2019-04-10T15:17:59.498Z,9.07
2019-04-10T15:23:01.558Z,6.27
2019-04-10T15:28:04.346Z,10.07
2019-04-10T15:33:06.766Z,4.07
2019-04-10T15:38:09.460Z,6.47
2019-04-10T15:43:12.608Z,4.40
2019-04-10T15:48:14.899Z,5.93
2019-04-10T15:53:18.026Z,4.53
2019-04-10T15:58:21.416Z,6.33
2019-04-10T16:03:23.978Z,8.03
2019-04-10T16:08:28.155Z,5.37
2019-04-10T16:13:38.840Z,7.20
2019-04-10T16:18:41.717Z,20.57
2019-04-10T16:23:48.194Z,13.90
2019-04-10T16:28:51.371Z,8.97
2019-04-10T16:33:54.613Z,9.20
2019-04-10T16:38:57.441Z,6.03
2019-04-10T16:44:00.534Z,5.87
2019-04-10T16:49:02.752Z,7.37
2019-04-10T16:54:04.841Z,4.80
2019-04-10T16:59:06.876Z,6.47
2019-04-10T17:04:09.124Z,5.83
2019-04-10T17:09:15.221Z,7.13
2019-04-10T17:14:17.524Z,6.60
2019-04-10T17:19:19.888Z,7.93
2019-04-10T17:24:22.954Z,6.30
2019-04-10T17:29:25.299Z,5.50
2019-04-10T17:34:27.479Z,7.23
2019-04-10T17:39:29.552Z,5.93
2019-04-10T17:44:31.861Z,9.90
2019-04-10T17:49:34.041Z,5.87
2019-04-10T17:54:36.681Z,9.93
2019-04-10T17:59:38.958Z,6.33
2019-04-10T18:04:42.151Z,10.13
2019-04-10T18:09:44.430Z,8.83
2019-04-10T18:14:47.168Z,6.87
2019-04-10T18:19:50.252Z,5.47
2019-04-10T18:24:53.672Z,10.03
2019-04-10T18:29:55.937Z,8.37
2019-04-10T18:34:58.292Z,7.23
2019-04-10T18:40:01.709Z,6.70
2019-04-10T18:45:05.693Z,5.60
2019-04-10T18:50:08.102Z,6.80
2019-04-10T18:55:10.197Z,19.87
2019-04-10T19:00:34.477Z,10.73
2019-04-10T19:05:40.265Z,16.27
2019-04-10T19:10:43.254Z,13.83
2019-04-10T19:15:46.887Z,8.00
2019-04-10T19:21:08.617Z,7.57
2019-04-10T19:26:13.858Z,9.30
2019-04-10T19:31:20.059Z,7.07
2019-04-10T19:36:23.761Z,9.60
2019-04-10T19:41:32.814Z,6.27
2019-04-10T19:46:31.358Z,5.27
2019-04-10T19:51:34.382Z,7.70
2019-04-10T19:56:36.978Z,8.27
2019-04-10T20:01:39.579Z,5.17
2019-04-10T20:06:42.700Z,8.97
2019-04-10T20:11:52.070Z,6.90
2019-04-10T20:16:49.462Z,6.07
2019-04-10T20:21:52.412Z,17.87
2019-04-10T20:26:55.838Z,8.77
2019-04-10T20:31:58.586Z,8.10
2019-04-10T20:37:05.956Z,6.17
2019-04-10T20:42:05.827Z,6.80
2019-04-10T20:47:08.803Z,15.83
2019-04-10T20:52:11.965Z,7.90
2019-04-10T20:57:15.148Z,6.67
2019-04-10T21:02:18.080Z,7.90
2019-04-10T21:07:21.338Z,5.37
2019-04-10T21:12:23.829Z,6.63
2019-04-10T21:17:26.073Z,9.73
2019-04-10T21:22:28.674Z,6.70
2019-04-10T21:27:33.542Z,5.87
2019-04-10T21:32:56.737Z,6.73
2019-04-10T21:37:59.209Z,8.13
2019-04-10T21:43:01.614Z,8.30
2019-04-10T21:48:04.192Z,7.00
2019-04-10T21:53:06.353Z,8.27
2019-04-10T21:58:08.429Z,11.57
2019-04-10T22:03:11.235Z,8.00
2019-04-10T22:08:29.518Z,15.87
2019-04-10T22:13:32.286Z,11.20
2019-04-10T22:18:34.472Z,21.47
2019-04-10T22:23:36.563Z,8.13
2019-04-10T22:28:39.377Z,5.83
2019-04-10T22:33:42.569Z,7.13
2019-04-10T22:38:44.795Z,10.37
2019-04-10T22:43:47.050Z,6.90
2019-04-10T22:48:50.055Z,6.50
2019-04-10T22:53:53.424Z,8.10
2019-04-10T22:58:55.687Z,10.57
2019-04-10T23:03:57.746Z,7.57
2019-04-10T23:09:00.105Z,8.50
2019-04-10T23:14:02.655Z,7.63
2019-04-10T23:19:05.719Z,8.27
2019-04-10T23:24:07.826Z,7.37
2019-04-10T23:29:09.939Z,7.70
2019-04-10T23:34:12.545Z,9.63
2019-04-10T23:39:14.739Z,8.17
2019-04-10T23:44:16.813Z,6.07
2019-04-10T23:49:19.522Z,6.80
2019-04-10T23:54:21.900Z,8.87
2019-04-10T23:59:23.962Z,7.20
